createdAt,value
2024-02-08T00:01:49.827Z,15.40
2024-02-08T00:04:16.818Z,15.50
2024-02-08T00:06:43.330Z,15.26
2024-02-08T00:09:09.730Z,15.42
2024-02-08T00:11:36.134Z,15.35
2024-02-08T00:14:02.574Z,15.27
2024-02-08T00:16:29.109Z,15.31
2024-02-08T00:18:57.023Z,15.29
2024-02-08T00:21:23.607Z,15.40
2024-02-08T00:23:49.994Z,15.40
2024-02-08T00:26:18.511Z,15.45
2024-02-08T00:28:44.924Z,15.40
2024-02-08T00:31:11.313Z,15.42
2024-02-08T00:33:38.697Z,15.25
2024-02-08T00:36:05.357Z,15.26
2024-02-08T00:38:31.873Z,15.20
2024-02-08T00:40:58.335Z,15.16
2024-02-08T00:43:24.834Z,15.16
2024-02-08T00:45:53.705Z,15.09
2024-02-08T00:48:23.392Z,15.24
2024-02-08T00:50:50.063Z,15.18
2024-02-08T00:53:16.541Z,15.21
2024-02-08T00:55:45.065Z,15.13
2024-02-08T00:58:12.439Z,15.29
2024-02-08T01:00:39.661Z,15.15
2024-02-08T01:03:06.394Z,15.20
2024-02-08T01:05:33.734Z,15.22
2024-02-08T01:08:01.355Z,15.07
2024-02-08T01:10:28.309Z,15.22
2024-02-08T01:12:55.580Z,15.24
2024-02-08T01:15:22.369Z,15.27
2024-02-08T01:17:52.557Z,15.15
2024-02-08T01:20:24.299Z,14.95
2024-02-08T01:22:51.201Z,15.02
2024-02-08T01:25:17.634Z,15.03
2024-02-08T01:27:44.852Z,14.97
2024-02-08T01:30:17.432Z,14.87
2024-02-08T01:32:43.861Z,14.87
2024-02-08T01:35:13.332Z,14.96
2024-02-08T01:37:40.071Z,14.93
2024-02-08T01:40:17.687Z,14.93
2024-02-08T01:42:44.905Z,14.97
2024-02-08T01:45:34.904Z,14.86
2024-02-08T01:48:03.468Z,14.84
2024-02-08T01:50:31.484Z,14.87
2024-02-08T01:53:00.370Z,14.91
2024-02-08T01:55:34.212Z,14.94
2024-02-08T01:58:06.554Z,14.79
2024-02-08T02:00:43.128Z,14.75
2024-02-08T02:03:12.945Z,14.90
2024-02-08T02:05:43.985Z,14.94
2024-02-08T02:08:11.339Z,15.14
2024-02-08T02:10:38.575Z,15.00
2024-02-08T02:13:10.017Z,14.90
2024-02-08T02:15:38.844Z,14.79
2024-02-08T02:18:08.678Z,14.89
2024-02-08T02:20:35.219Z,15.17
2024-02-08T02:23:02.015Z,15.07
2024-02-08T02:25:29.117Z,15.19
2024-02-08T02:27:56.324Z,15.29
2024-02-08T02:30:23.216Z,15.12
2024-02-08T02:32:53.496Z,15.07
2024-02-08T02:35:20.039Z,15.18
2024-02-08T02:37:46.594Z,15.22
2024-02-08T02:40:22.792Z,15.26
2024-02-08T02:42:49.721Z,15.33
2024-02-08T02:45:22.872Z,15.22
2024-02-08T02:47:50.669Z,15.11
2024-02-08T02:50:20.102Z,15.30
2024-02-08T02:52:46.915Z,15.39
2024-02-08T02:55:13.507Z,15.42
2024-02-08T02:57:42.480Z,15.55
2024-02-08T03:00:22.211Z,15.44
2024-02-08T03:02:52.699Z,15.16
2024-02-08T03:05:19.486Z,15.42
2024-02-08T03:07:47.197Z,15.27
2024-02-08T03:10:13.957Z,15.39
2024-02-08T03:12:41.491Z,15.53
2024-02-08T03:15:10.684Z,15.41
2024-02-08T03:17:39.671Z,15.24
2024-02-08T03:20:07.225Z,15.25
2024-02-08T03:22:35.459Z,15.19
2024-02-08T03:25:05.556Z,15.50
2024-02-08T03:27:35.005Z,15.29
2024-02-08T03:30:03.618Z,15.35
2024-02-08T03:32:32.846Z,15.47
2024-02-08T03:35:00.882Z,15.31
2024-02-08T03:37:27.563Z,15.30
2024-02-08T03:39:53.962Z,15.40
2024-02-08T03:42:20.788Z,15.43
2024-02-08T03:44:47.158Z,15.40
2024-02-08T03:47:13.700Z,15.64
2024-02-08T03:49:42.153Z,15.58
2024-02-08T03:52:11.395Z,15.56
2024-02-08T03:54:37.969Z,15.51
2024-02-08T03:57:08.725Z,15.67
2024-02-08T03:59:35.485Z,15.72
2024-02-08T04:02:04.567Z,15.76
2024-02-08T04:04:51.179Z,15.91
2024-02-08T04:07:35.550Z,15.89
2024-02-08T04:10:20.908Z,15.93
2024-02-08T04:13:05.934Z,15.95
2024-02-08T04:15:50.790Z,15.80
2024-02-08T04:18:35.686Z,15.95
2024-02-08T04:21:21.145Z,15.83
2024-02-08T04:24:06.116Z,15.84
2024-02-08T04:26:51.112Z,15.79
2024-02-08T04:29:35.960Z,15.94
2024-02-08T04:32:20.959Z,16.06
2024-02-08T04:35:05.703Z,16.11
2024-02-08T04:37:50.590Z,16.08
2024-02-08T04:40:35.437Z,15.88
2024-02-08T04:43:20.308Z,15.97
2024-02-08T04:46:05.239Z,16.01
2024-02-08T04:48:50.023Z,16.06
2024-02-08T04:51:34.971Z,16.00
2024-02-08T04:54:03.486Z,16.01
2024-02-08T04:56:30.108Z,15.98
2024-02-08T04:59:18.042Z,16.05
2024-02-08T05:01:43.272Z,16.15
2024-02-08T05:04:09.838Z,16.08
2024-02-08T05:06:36.946Z,16.19
2024-02-08T05:09:04.005Z,16.16
2024-02-08T05:11:30.780Z,16.14
2024-02-08T05:14:03.967Z,16.27
2024-02-08T05:16:38.313Z,16.12
2024-02-08T05:19:05.293Z,16.32
2024-02-08T05:21:34.720Z,16.11
2024-02-08T05:24:02.691Z,16.41
2024-02-08T05:26:33.578Z,16.45
2024-02-08T05:29:00.321Z,16.54
2024-02-08T05:31:31.050Z,16.41
2024-02-08T05:33:58.378Z,16.44
2024-02-08T05:36:25.185Z,16.44
2024-02-08T05:38:57.938Z,16.33
2024-02-08T05:41:24.767Z,16.51
2024-02-08T05:43:53.213Z,16.48
2024-02-08T05:46:26.749Z,16.58
2024-02-08T05:48:55.277Z,16.57
2024-02-08T05:51:22.247Z,16.62
2024-02-08T05:53:49.251Z,16.48
2024-02-08T05:56:34.866Z,16.56
2024-02-08T05:59:07.220Z,16.43
2024-02-08T06:01:45.239Z,16.39
2024-02-08T06:04:13.566Z,16.26
2024-02-08T06:06:54.250Z,16.18
2024-02-08T06:09:56.254Z,16.15
2024-02-08T06:12:29.687Z,15.96
2024-02-08T06:15:15.485Z,16.21
2024-02-08T06:17:46.906Z,16.33
2024-02-08T06:20:15.910Z,16.32
2024-02-08T06:22:44.642Z,16.19
2024-02-08T06:25:28.426Z,16.19
2024-02-08T06:27:59.318Z,15.87
2024-02-08T06:30:27.356Z,16.01
2024-02-08T06:33:11.757Z,16.00
2024-02-08T06:35:39.878Z,15.76
2024-02-08T06:38:14.477Z,15.80
2024-02-08T06:40:54.212Z,15.85
2024-02-08T06:43:23.694Z,15.63
2024-02-08T06:45:51.032Z,15.57
2024-02-08T06:48:36.596Z,15.55
2024-02-08T06:51:22.138Z,15.31
2024-02-08T06:54:07.241Z,15.34
2024-02-08T06:56:52.287Z,15.46
2024-02-08T06:59:37.166Z,15.46
2024-02-08T07:02:22.123Z,15.48
2024-02-08T07:05:10.452Z,15.21
2024-02-08T07:08:11.796Z,15.20
2024-02-08T07:10:56.667Z,15.42
2024-02-08T07:13:41.625Z,15.50
2024-02-08T07:16:26.712Z,15.34
2024-02-08T07:19:12.235Z,15.33
2024-02-08T07:21:57.419Z,15.21
2024-02-08T07:24:50.299Z,15.09
2024-02-08T07:27:35.276Z,15.41
2024-02-08T07:30:20.301Z,15.15
2024-02-08T07:33:05.657Z,14.95
2024-02-08T07:35:50.833Z,14.65
2024-02-08T07:38:35.828Z,14.59
2024-02-08T07:41:02.307Z,15.20
2024-02-08T07:43:36.112Z,15.32
2024-02-08T07:46:06.342Z,15.25
2024-02-08T07:48:45.617Z,15.19
2024-02-08T07:51:17.008Z,15.24
2024-02-08T07:53:51.190Z,15.31
2024-02-08T07:56:36.222Z,15.11
2024-02-08T07:59:06.455Z,14.86
2024-02-08T08:01:45.530Z,14.89
2024-02-08T08:04:13.858Z,14.93
2024-02-08T08:06:50.325Z,14.79
2024-02-08T08:09:20.544Z,14.91
2024-02-08T08:11:52.750Z,14.96
2024-02-08T08:14:45.582Z,14.73
2024-02-08T08:17:32.544Z,14.99
2024-02-08T08:20:05.905Z,14.92
2024-02-08T08:22:32.764Z,14.88
2024-02-08T08:25:14.128Z,15.13
2024-02-08T08:28:11.352Z,14.91
2024-02-08T08:30:39.957Z,15.19
2024-02-08T08:33:07.139Z,14.87
2024-02-08T08:35:54.775Z,14.76
2024-02-08T08:38:21.871Z,15.04
2024-02-08T08:41:01.344Z,15.04
2024-02-08T08:43:28.593Z,15.08
2024-02-08T08:46:00.563Z,15.16
2024-02-08T08:48:34.919Z,15.21
2024-02-08T08:51:12.499Z,15.17
2024-02-08T08:53:46.148Z,15.22
2024-02-08T08:56:13.262Z,15.36
2024-02-08T08:58:41.324Z,15.20
2024-02-08T09:01:23.230Z,15.26
2024-02-08T09:03:58.023Z,14.99
2024-02-08T09:06:27.678Z,14.97
2024-02-08T09:08:57.226Z,14.90
2024-02-08T09:11:27.208Z,14.93
2024-02-08T09:13:53.957Z,14.89
2024-02-08T09:16:23.850Z,15.07
2024-02-08T09:19:05.855Z,14.94
2024-02-08T09:21:34.260Z,15.17
2024-02-08T09:24:04.381Z,15.12
2024-02-08T09:26:47.332Z,14.93
2024-02-08T09:29:14.296Z,15.19
2024-02-08T09:31:40.796Z,15.23
2024-02-08T09:34:16.057Z,15.33
2024-02-08T09:36:44.033Z,15.41
2024-02-08T09:39:16.289Z,15.55
2024-02-08T09:41:49.097Z,15.59
2024-02-08T09:44:15.583Z,15.63
2024-02-08T09:46:44.986Z,15.71
2024-02-08T09:49:15.688Z,15.64
2024-02-08T09:51:53.279Z,15.44
2024-02-08T09:54:28.191Z,15.58
2024-02-08T09:57:02.959Z,15.71
2024-02-08T10:00:00.974Z,15.86
2024-02-08T10:02:35.021Z,15.90
2024-02-08T10:05:20.184Z,15.92
2024-02-08T10:08:10.784Z,15.85
2024-02-08T10:10:46.031Z,15.85
2024-02-08T10:13:26.617Z,15.94
2024-02-08T10:15:57.164Z,16.13
2024-02-08T10:18:35.252Z,16.42
2024-02-08T10:21:15.020Z,16.98
2024-02-08T10:24:00.595Z,17.34
2024-02-08T10:26:28.944Z,17.59
2024-02-08T10:28:56.493Z,18.10
2024-02-08T10:31:26.796Z,18.31
2024-02-08T10:34:09.936Z,18.57
2024-02-08T10:36:46.777Z,18.90
2024-02-08T10:39:26.225Z,19.12
2024-02-08T10:42:00.034Z,19.42
2024-02-08T10:44:34.276Z,19.79
2024-02-08T10:47:08.240Z,20.05
2024-02-08T10:49:43.537Z,20.41
2024-02-08T10:52:13.060Z,20.79
2024-02-08T10:54:50.174Z,21.05
2024-02-08T10:57:35.574Z,20.41
2024-02-08T11:00:22.555Z,20.26
2024-02-08T11:03:01.475Z,20.38
2024-02-08T11:05:28.225Z,20.57
2024-02-08T11:07:55.144Z,20.69
2024-02-08T11:10:24.590Z,21.22
2024-02-08T11:12:54.713Z,21.00
2024-02-08T11:15:32.018Z,20.79
2024-02-08T11:17:59.707Z,20.71
2024-02-08T11:20:44.837Z,20.36
2024-02-08T11:23:19.518Z,20.36
2024-02-08T11:25:46.492Z,20.13
2024-02-08T11:28:23.161Z,20.24
2024-02-08T11:30:53.597Z,19.65
2024-02-08T11:33:43.470Z,20.17
2024-02-08T11:36:14.675Z,20.57
2024-02-08T11:38:46.981Z,20.21
2024-02-08T11:41:15.245Z,19.84
2024-02-08T11:43:48.665Z,19.84
2024-02-08T11:46:20.235Z,20.02
2024-02-08T11:48:48.103Z,20.22
2024-02-08T11:51:15.837Z,20.20
2024-02-08T11:53:45.714Z,20.01
2024-02-08T11:56:13.438Z,19.80
2024-02-08T11:58:42.713Z,19.97
2024-02-08T12:01:11.283Z,19.94
2024-02-08T12:03:42.539Z,19.87
2024-02-08T12:06:31.293Z,19.80
2024-02-08T12:08:59.913Z,19.73
2024-02-08T12:11:30.827Z,19.66
2024-02-08T12:14:04.682Z,19.51
2024-02-08T12:16:47.993Z,19.79
2024-02-08T12:19:16.402Z,19.85
2024-02-08T12:21:43.547Z,20.28
2024-02-08T12:24:16.958Z,20.35
2024-02-08T12:26:47.394Z,20.50
2024-02-08T12:29:18.044Z,20.68
2024-02-08T12:31:46.992Z,20.57
2024-02-08T12:34:15.475Z,20.60
2024-02-08T12:36:46.222Z,20.85
2024-02-08T12:39:20.158Z,20.97
2024-02-08T12:41:47.360Z,21.15
2024-02-08T12:44:16.549Z,21.10
2024-02-08T12:46:48.273Z,21.06
2024-02-08T12:49:16.604Z,20.86
2024-02-08T12:51:43.324Z,20.96
2024-02-08T12:54:15.257Z,20.61
2024-02-08T12:56:42.367Z,20.68
2024-02-08T12:59:09.563Z,20.73
2024-02-08T13:01:40.638Z,20.93
2024-02-08T13:04:07.931Z,20.95
2024-02-08T13:06:35.054Z,20.85
2024-02-08T13:09:18.393Z,20.83
2024-02-08T13:11:45.683Z,20.60
2024-02-08T13:14:15.471Z,21.01
2024-02-08T13:16:41.889Z,21.09
2024-02-08T13:19:15.163Z,21.35
2024-02-08T13:21:44.729Z,21.42
2024-02-08T13:24:11.779Z,21.46
2024-02-08T13:26:38.159Z,21.13
2024-02-08T13:29:04.978Z,20.94
2024-02-08T13:31:31.370Z,20.87
2024-02-08T13:33:57.984Z,21.02
2024-02-08T13:36:26.334Z,21.25
2024-02-08T13:38:52.887Z,21.25
2024-02-08T13:41:19.305Z,21.10
2024-02-08T13:43:50.130Z,21.08
2024-02-08T13:46:16.874Z,21.05
2024-02-08T13:48:43.520Z,21.09
2024-02-08T13:51:11.846Z,21.13
2024-02-08T13:53:38.863Z,21.29
2024-02-08T13:56:12.766Z,21.47
2024-02-08T13:58:39.465Z,21.46
2024-02-08T14:01:06.589Z,21.53
2024-02-08T14:03:35.931Z,21.47
2024-02-08T14:06:03.190Z,21.58
2024-02-08T14:08:31.016Z,21.16
2024-02-08T14:10:59.451Z,21.34
2024-02-08T14:13:37.056Z,21.27
2024-02-08T14:16:15.649Z,21.19
2024-02-08T14:18:50.742Z,21.17
2024-02-08T14:21:21.687Z,21.26
2024-02-08T14:23:50.760Z,21.39
2024-02-08T14:26:20.232Z,21.34
2024-02-08T14:28:53.220Z,21.25
2024-02-08T14:31:19.665Z,21.33
2024-02-08T14:33:49.240Z,21.45
2024-02-08T14:36:19.693Z,21.42
2024-02-08T14:38:47.326Z,21.40
2024-02-08T14:41:32.859Z,21.42
2024-02-08T14:44:07.436Z,21.29
2024-02-08T14:46:35.022Z,21.41
2024-02-08T14:49:06.397Z,21.25
2024-02-08T14:51:37.417Z,21.24
2024-02-08T14:54:03.849Z,21.31
2024-02-08T14:56:30.348Z,21.21
2024-02-08T14:59:08.968Z,21.43
2024-02-08T15:01:53.888Z,21.39
2024-02-08T15:04:27.155Z,21.45
2024-02-08T15:07:05.620Z,21.06
2024-02-08T15:09:36.314Z,21.29
2024-02-08T15:12:25.933Z,21.37
2024-02-08T15:14:56.304Z,21.46
2024-02-08T15:17:27.314Z,21.36
2024-02-08T15:19:53.916Z,21.04
2024-02-08T15:22:30.115Z,20.90
2024-02-08T15:25:05.419Z,20.88
2024-02-08T15:27:51.251Z,20.88
2024-02-08T15:30:20.733Z,20.89
2024-02-08T15:32:48.380Z,20.86
2024-02-08T15:35:25.555Z,20.97
2024-02-08T15:38:12.053Z,20.90
2024-02-08T15:40:44.788Z,20.78
2024-02-08T15:43:16.519Z,20.66
2024-02-08T15:45:43.899Z,20.31
2024-02-08T15:48:15.401Z,19.95
2024-02-08T15:50:45.217Z,20.00
2024-02-08T15:53:20.149Z,19.78
2024-02-08T15:55:57.273Z,19.40
2024-02-08T15:58:27.543Z,19.24
2024-02-08T16:01:19.574Z,19.04
2024-02-08T16:04:01.133Z,18.91
2024-02-08T16:06:44.159Z,19.12
2024-02-08T16:09:27.682Z,18.81
2024-02-08T16:12:14.318Z,18.79
2024-02-08T16:14:43.546Z,18.62
2024-02-08T16:17:30.806Z,18.57
2024-02-08T16:20:07.368Z,18.64
2024-02-08T16:22:48.742Z,18.47
2024-02-08T16:25:18.239Z,18.42
2024-02-08T16:27:49.660Z,18.16
2024-02-08T16:30:29.814Z,18.21
2024-02-08T16:32:57.280Z,17.97
2024-02-08T16:35:42.511Z,17.88
2024-02-08T16:38:10.023Z,18.13
2024-02-08T16:40:44.586Z,18.02
2024-02-08T16:43:21.290Z,17.61
2024-02-08T16:45:57.357Z,17.81
2024-02-08T16:48:34.578Z,17.95
2024-02-08T16:51:10.494Z,17.94
2024-02-08T16:53:44.460Z,17.92
2024-02-08T16:56:13.541Z,17.83
2024-02-08T16:58:45.216Z,18.03
2024-02-08T17:01:20.404Z,17.96
2024-02-08T17:04:17.187Z,17.92
2024-02-08T17:07:04.786Z,17.84
2024-02-08T17:09:44.980Z,17.64
2024-02-08T17:12:19.444Z,17.47
2024-02-08T17:14:50.462Z,17.33
2024-02-08T17:17:36.186Z,17.43
2024-02-08T17:20:07.192Z,17.44
2024-02-08T17:22:52.885Z,17.28
2024-02-08T17:25:19.353Z,17.37
2024-02-08T17:28:04.199Z,17.37
2024-02-08T17:30:49.255Z,17.09
2024-02-08T17:33:15.692Z,17.22
2024-02-08T17:35:42.396Z,16.48
2024-02-08T17:38:08.865Z,17.00
2024-02-08T17:40:35.436Z,16.81
2024-02-08T17:43:10.324Z,16.88
2024-02-08T17:46:03.705Z,16.96
2024-02-08T17:48:31.815Z,16.76
2024-02-08T17:51:08.262Z,16.68
2024-02-08T17:53:36.303Z,16.80
2024-02-08T17:56:08.536Z,16.79
2024-02-08T17:58:36.240Z,16.93
2024-02-08T18:01:07.965Z,16.69
2024-02-08T18:03:37.318Z,16.85
2024-02-08T18:06:07.521Z,16.65
2024-02-08T18:08:39.623Z,16.52
2024-02-08T18:11:09.234Z,16.65
2024-02-08T18:13:38.706Z,16.67
2024-02-08T18:16:11.123Z,16.78
2024-02-08T18:18:40.736Z,16.44
2024-02-08T18:21:14.593Z,16.47
2024-02-08T18:23:46.565Z,16.57
2024-02-08T18:26:26.903Z,16.51
2024-02-08T18:28:53.301Z,16.47
2024-02-08T18:31:22.073Z,16.66
2024-02-08T18:33:50.744Z,16.49
2024-02-08T18:36:17.198Z,16.36
2024-02-08T18:38:44.208Z,16.29
2024-02-08T18:41:10.671Z,16.26
2024-02-08T18:43:37.534Z,16.33
2024-02-08T18:46:07.280Z,16.50
2024-02-08T18:48:41.347Z,16.24
2024-02-08T18:51:09.974Z,16.19
2024-02-08T18:53:39.393Z,16.34
2024-02-08T18:56:11.435Z,16.04
2024-02-08T18:58:39.774Z,16.16
2024-02-08T19:01:08.936Z,16.27
2024-02-08T19:03:37.545Z,16.26
2024-02-08T19:06:04.077Z,16.49
2024-02-08T19:08:37.765Z,16.39
2024-02-08T19:11:04.485Z,16.51
2024-02-08T19:13:36.925Z,16.22
2024-02-08T19:16:09.371Z,16.43
2024-02-08T19:18:44.979Z,16.47
2024-02-08T19:21:32.052Z,16.38
2024-02-08T19:24:03.497Z,15.96
2024-02-08T19:26:32.548Z,16.12
2024-02-08T19:29:02.335Z,16.27
2024-02-08T19:31:28.992Z,16.10
2024-02-08T19:33:58.593Z,16.39
2024-02-08T19:36:25.258Z,16.47
2024-02-08T19:38:55.505Z,16.49
2024-02-08T19:41:22.679Z,15.94
2024-02-08T19:43:49.426Z,16.29
2024-02-08T19:46:20.507Z,16.32
2024-02-08T19:48:58.561Z,16.50
2024-02-08T19:51:28.366Z,16.41
2024-02-08T19:54:00.198Z,16.37
2024-02-08T19:56:34.735Z,16.15
2024-02-08T19:59:03.438Z,16.32
2024-02-08T20:01:37.131Z,16.43
2024-02-08T20:04:05.943Z,16.32
2024-02-08T20:06:35.392Z,16.22
2024-02-08T20:09:09.211Z,16.29
2024-02-08T20:11:39.774Z,16.50
2024-02-08T20:14:12.913Z,16.51
2024-02-08T20:16:41.002Z,16.20
2024-02-08T20:19:10.315Z,16.59
2024-02-08T20:21:37.009Z,16.58
2024-02-08T20:24:03.404Z,16.75
2024-02-08T20:26:30.212Z,16.65
2024-02-08T20:28:56.598Z,16.85
2024-02-08T20:31:25.524Z,16.77
2024-02-08T20:33:55.599Z,16.94
2024-02-08T20:36:22.648Z,16.95
2024-02-08T20:38:54.870Z,16.93
2024-02-08T20:41:24.794Z,16.75
2024-02-08T20:43:56.878Z,16.42
2024-02-08T20:46:23.686Z,16.77
2024-02-08T20:48:53.419Z,16.77
2024-02-08T20:51:21.871Z,16.78
2024-02-08T20:53:48.315Z,16.80
2024-02-08T20:56:23.961Z,16.98
2024-02-08T20:58:50.539Z,17.00
2024-02-08T21:01:20.223Z,17.02
2024-02-08T21:03:48.227Z,16.94
2024-02-08T21:06:14.865Z,16.74
2024-02-08T21:08:41.286Z,16.79
2024-02-08T21:11:08.026Z,16.68
2024-02-08T21:13:34.517Z,16.74
2024-02-08T21:16:01.073Z,16.64
2024-02-08T21:18:29.719Z,16.81
2024-02-08T21:20:56.272Z,16.87
2024-02-08T21:23:23.137Z,16.75
2024-02-08T21:25:52.757Z,16.71
2024-02-08T21:28:19.517Z,16.65
2024-02-08T21:30:51.165Z,16.38
2024-02-08T21:33:17.770Z,16.20
2024-02-08T21:35:45.188Z,16.48
2024-02-08T21:38:11.981Z,16.53
2024-02-08T21:40:43.602Z,16.57
2024-02-08T21:43:13.591Z,16.22
2024-02-08T21:45:43.694Z,16.23
2024-02-08T21:48:16.054Z,15.92
2024-02-08T21:50:43.305Z,15.88
2024-02-08T21:53:11.134Z,15.92
2024-02-08T21:55:37.532Z,15.89
2024-02-08T21:58:05.357Z,15.75
2024-02-08T22:00:33.873Z,15.26
2024-02-08T22:03:00.793Z,15.72
2024-02-08T22:05:28.339Z,15.71
2024-02-08T22:07:55.154Z,15.70
2024-02-08T22:10:21.829Z,15.41
2024-02-08T22:12:48.809Z,15.71
2024-02-08T22:15:18.482Z,15.59
2024-02-08T22:17:47.854Z,15.52
2024-02-08T22:20:14.665Z,15.44
2024-02-08T22:22:45.188Z,15.80
2024-02-08T22:25:16.622Z,15.93
2024-02-08T22:27:45.431Z,15.92
2024-02-08T22:30:12.236Z,16.00
2024-02-08T22:32:39.183Z,15.66
2024-02-08T22:35:06.203Z,15.55
2024-02-08T22:37:34.304Z,15.53
2024-02-08T22:40:04.608Z,15.45
2024-02-08T22:42:32.831Z,15.59
2024-02-08T22:44:59.184Z,15.69
2024-02-08T22:47:25.552Z,15.45
2024-02-08T22:49:53.064Z,15.53
2024-02-08T22:52:22.423Z,15.53
2024-02-08T22:54:51.661Z,15.45
2024-02-08T22:57:18.040Z,15.50
2024-02-08T22:59:49.702Z,15.21
2024-02-08T23:02:17.688Z,14.97
2024-02-08T23:04:44.720Z,15.07
2024-02-08T23:07:11.690Z,15.02
2024-02-08T23:09:38.046Z,14.72
2024-02-08T23:12:06.225Z,14.73
2024-02-08T23:14:32.725Z,14.69
2024-02-08T23:16:59.502Z,14.78
2024-02-08T23:19:33.219Z,15.18
2024-02-08T23:22:05.123Z,14.87
2024-02-08T23:24:32.500Z,15.32
2024-02-08T23:26:58.855Z,15.35
2024-02-08T23:29:25.877Z,14.91
2024-02-08T23:31:52.665Z,15.28
2024-02-08T23:34:20.320Z,15.13
2024-02-08T23:36:47.057Z,15.09
2024-02-08T23:39:14.830Z,15.34
2024-02-08T23:41:41.516Z,15.58
2024-02-08T23:44:08.352Z,15.50
2024-02-08T23:46:38.013Z,15.41
2024-02-08T23:49:06.087Z,15.63
2024-02-08T23:51:32.734Z,15.36
2024-02-08T23:53:59.081Z,15.49
2024-02-08T23:56:25.741Z,15.56
2024-02-08T23:58:53.014Z,16.00
